SBCTSBJV

Guest
Details From SBCT - Afonso Pena
To SBJV - LAURO CARNEIRO DE LOYOLA
Flight Number -
Tags generated
Created
Modified
Stats Distance 46 nm / 86 km
Max Altitude 100 ft / 30 m
Waypoints 3
Social Downloads 1
Likes 0
Share VATSIM

Download

Looking for another format? Having issues loading an existing format? Contact us
Advertisement - Login to hide

Notes

Basic altitude profile: - Ascent Rate: 2500ft/min - Ascent Speed: 250kts - Cruise Altitude: 270ft - Cruise Speed: 270kts - Descent Rate: 1500ft/min - Descent Speed: 190kts Options: - Use NATs: yes - Use PACOTS: yes - Use low airways: no - Use high airways: yes

Route

SBCT CTB SBJV

ID Type Via Altitude Latitude Longitude Leg Dist Tot Dist Heading (true) Name
O SBCT APT - 0 ft / 0 m -25.52888˚ -49.17306˚ - 0 nm - Afonso Pena
CTB VOR - 100 ft / 30 m -25.53200˚ -49.16767˚ 0 nm 0 nm 123° / 123° CURITIBA VOR-DME
O SBJV APT - 0 ft / 0 m -26.22445˚ -48.79736˚ 46 nm 46 nm 154° / 154° LAURO CARNEIRO DE LOYOLA

Altitude Profile

Advertisement - Login to hide

SBCT

Details ICAO SBCT (CWB)
Name Afonso Pena
Region Brazil
Timezone America/Sao_Paulo (UTC-2.0)
Stats Elevation 2,988 ft / 911 m (AMSL)
Location -25.528885° -49.173062°
Runways 2
Magnetic Variation 19.614° W

METAR

SBCT 161700Z 30006KT 9999 BKN040 29/15 Q1016

Decode

TAF

TAF SBCT 160830Z 1612/1712 08005KT 9999 BKN012 TX28/1617Z TN16/1708Z BECMG 1612/1614 03008KT SCT025 BECMG 1615/1617 VCSH BKN030 FEW040TCU BECMG 1620/1622 NSW SCT035 BECMG 1700/1702 02003KT 5000 BR BKN003 BKN006 BECMG 1706/1708 35005KT 8000 BKN008 BECMG 1710/1712 9999 NSW SCT012 RMK PDW

Decode

Departure Runways

ID Width Length Bearing (true) Bearing (mag) Surface Threshold Offset Overrun Length
11 148 ft / 45 m 5,909 ft / 1,801 m 91.79° 111.40° Asphalt 0 ft / 0 m 0 ft / 0 m
15 148 ft / 45 m 7,290 ft / 2,222 m 134.76° 154.37° Asphalt 0 ft / 0 m 190 ft / 58 m
29 148 ft / 45 m 5,909 ft / 1,801 m 271.78° 291.39° Asphalt 0 ft / 0 m 0 ft / 0 m
33 148 ft / 45 m 7,290 ft / 2,222 m 314.75° 334.36° Asphalt 0 ft / 0 m 185 ft / 56 m

SBJV

Details ICAO SBJV (JOI)
Name LAURO CARNEIRO DE LOYOLA
Region Brazil
Timezone Unknown (UTC+0.0)
Stats Elevation 15 ft / 5 m (AMSL)
Location -26.224452° -48.797362°
Runways 1
Magnetic Variation 19.628° W

METAR

SBJV 161600Z 13013KT 9999 SCT030 FEW035TCU 31/23 Q1011

Decode

TAF

TAF SBJV 160830Z 1612/1624 33005KT 9999 SCT020 TX30/1617Z TN24/1623Z BECMG 1612/1614 08008KT SCT025 BECMG 1622/1624 03005KT SCT015 RMK PDW

Decode

Destination Runways

ID Width Length Bearing (true) Bearing (mag) Surface Threshold Offset Overrun Length
15 148 ft / 45 m 5,382 ft / 1,640 m 128.89° 148.52° Asphalt 0 ft / 0 m 200 ft / 61 m
33 148 ft / 45 m 5,382 ft / 1,640 m 308.88° 328.51° Asphalt 0 ft / 0 m 200 ft / 61 m

Popular Alternatives